Time;durP1;ratioP1;P1;durP2;ratioP2;P2;SDS_P1;SDS_P2;PMS_P1;PMS_P2;Temp;Humidity;BMP_temperature;BMP_pressure;BME280_temperature;BME280_humidity;BME280_pressure;Samples;Min_cycle;Max_cycle;Signal;HPM_P1;HPM_P2
2023/07/11 00:02:24;;;;;;;7.15;5.93;;;19.60;99.90;;;;;;5022734;28;20551;-31
2023/07/11 00:04:50;;;;;;;6.25;5.65;;;19.60;99.90;;;;;;5023416;28;20029;-30
2023/07/11 00:07:15;;;;;;;8.75;5.90;;;19.30;99.90;;;;;;5020132;28;20120;-34
2023/07/11 00:09:42;;;;;;;7.40;5.68;;;19.10;99.90;;;;;;5020665;28;20030;-31
2023/07/11 00:12:08;;;;;;;5.55;5.03;;;19.10;99.90;;;;;;5004342;28;20048;-33
2023/07/11 00:14:36;;;;;;;6.38;5.60;;;19.10;99.90;;;;;;5020139;28;20492;-31
2023/07/11 00:17:03;;;;;;;;;;;19.20;99.90;;;;;;5020236;28;20036;-32
2023/07/11 00:19:29;;;;;;;7.40;5.72;;;19.20;99.90;;;;;;5017199;28;19967;-30
2023/07/11 00:21:55;;;;;;;5.72;5.13;;;19.10;99.90;;;;;;5023164;28;20543;-42
2023/07/11 00:24:20;;;;;;;6.85;5.28;;;19.20;99.90;;;;;;5014575;28;20215;-40
2023/07/11 00:26:46;;;;;;;8.02;5.65;;;19.20;99.90;;;;;;5022004;28;20702;-42
2023/07/11 00:29:21;;;;;;;8.63;5.75;;;19.20;99.90;;;;;;5017921;28;20096;-41
2023/07/11 00:31:47;;;;;;;6.40;5.70;;;19.20;99.90;;;;;;5020033;28;20045;-42
2023/07/11 00:34:13;;;;;;;6.30;5.68;;;19.20;99.90;;;;;;5019655;28;20383;-43
2023/07/11 00:36:38;;;;;;;7.03;6.32;;;18.90;99.90;;;;;;5017929;28;20030;-43
2023/07/11 00:39:05;;;;;;;6.32;5.72;;;18.60;99.90;;;;;;5019921;28;20103;-43
2023/07/11 00:41:31;;;;;;;8.30;6.13;;;18.50;99.90;;;;;;5018194;28;20029;-40
2023/07/11 00:43:57;;;;;;;8.07;6.50;;;18.30;99.90;;;;;;5017165;28;20037;-41
2023/07/11 00:46:23;;;;;;;8.23;6.25;;;18.20;99.90;;;;;;5021580;28;20072;-40
2023/07/11 00:48:53;;;;;;;7.55;6.40;;;18.30;99.90;;;;;;5020893;28;20124;-42
2023/07/11 00:51:26;;;;;;;8.93;6.75;;;18.10;99.90;;;;;;5020798;28;20045;-42
2023/07/11 00:53:52;;;;;;;8.48;6.13;;;18.10;99.90;;;;;;5020754;28;20567;-37
2023/07/11 00:56:21;;;;;;;7.28;6.15;;;18.20;99.90;;;;;;5016454;28;20148;-42
2023/07/11 00:58:47;;;;;;;7.20;5.95;;;18.30;99.90;;;;;;5020275;28;20034;-42
2023/07/11 01:01:14;;;;;;;7.47;6.18;;;18.40;99.90;;;;;;5019681;28;20205;-42
2023/07/11 01:03:41;;;;;;;6.87;6.10;;;18.50;99.90;;;;;;5019060;28;20067;-43
2023/07/11 01:06:12;;;;;;;9.77;6.10;;;18.50;99.90;;;;;;5021316;28;20030;-41
2023/07/11 01:08:38;;;;;;;8.30;6.22;;;18.50;99.90;;;;;;5019107;28;20810;-36
2023/07/11 01:11:03;;;;;;;7.07;6.00;;;18.60;99.90;;;;;;5022690;28;20056;-42
2023/07/11 01:13:29;;;;;;;7.15;6.07;;;18.60;99.90;;;;;;5026738;28;20712;-42
2023/07/11 01:15:55;;;;;;;8.18;6.25;;;18.60;99.90;;;;;;5022721;28;20489;-43
2023/07/11 01:18:20;;;;;;;8.52;6.20;;;18.60;99.90;;;;;;5024898;28;20029;-42
2023/07/11 01:20:46;;;;;;;7.97;6.68;;;18.60;99.90;;;;;;5023378;28;20025;-41
2023/07/11 01:23:11;;;;;;;7.30;6.47;;;18.50;99.90;;;;;;5019724;28;20041;-41
2023/07/11 01:25:38;;;;;;;7.15;6.40;;;18.30;99.90;;;;;;5009055;28;20034;-40
2023/07/11 01:28:04;;;;;;;7.18;6.32;;;18.30;99.90;;;;;;5022233;28;20033;-39
2023/07/11 01:30:30;;;;;;;7.00;6.30;;;18.40;99.90;;;;;;5020090;28;20513;-43
2023/07/11 01:32:55;;;;;;;7.93;7.13;;;18.30;99.90;;;;;;5007624;28;20033;-41
2023/07/11 01:35:21;;;;;;;7.43;6.28;;;18.40;99.90;;;;;;5022348;28;20108;-40
2023/07/11 01:37:47;;;;;;;8.90;6.35;;;18.30;99.90;;;;;;5023142;28;21012;-41
2023/07/11 01:40:12;;;;;;;8.73;6.53;;;18.20;99.90;;;;;;5024619;28;20028;-43
2023/07/11 01:42:39;;;;;;;6.80;6.07;;;18.00;99.90;;;;;;5019131;28;20105;-43
2023/07/11 01:45:07;;;;;;;7.72;5.80;;;18.00;99.90;;;;;;5026679;28;20060;-41
2023/07/11 01:47:33;;;;;;;7.05;6.35;;;18.00;99.90;;;;;;5021682;28;20029;-37
2023/07/11 01:49:58;;;;;;;8.45;6.70;;;18.10;99.90;;;;;;5023490;28;21786;-43
2023/07/11 01:52:24;;;;;;;7.93;6.80;;;18.00;99.90;;;;;;5007938;28;20124;-39
2023/07/11 01:54:50;;;;;;;8.90;6.68;;;17.80;99.90;;;;;;5023846;28;20033;-44
2023/07/11 01:57:17;;;;;;;7.45;6.65;;;17.80;99.90;;;;;;5020357;28;20123;-40
2023/07/11 01:59:43;;;;;;;7.93;6.10;;;17.70;99.90;;;;;;5021097;28;20487;-40
2023/07/11 02:02:10;;;;;;;7.95;6.38;;;17.60;99.90;;;;;;5021332;28;20044;-40
2023/07/11 02:04:36;;;;;;;8.15;6.07;;;17.40;99.90;;;;;;5020531;28;20029;-40
2023/07/11 02:07:04;;;;;;;8.65;6.38;;;17.30;99.90;;;;;;5021870;28;20030;-42
2023/07/11 02:09:30;;;;;;;8.82;6.85;;;17.30;99.90;;;;;;5021114;28;20017;-42
2023/07/11 02:11:56;;;;;;;8.07;6.10;;;17.30;99.90;;;;;;5018828;28;20411;-35
2023/07/11 02:14:22;;;;;;;5.95;5.22;;;17.20;99.90;;;;;;5022145;28;20029;-35
2023/07/11 02:16:50;;;;;;;11.38;6.63;;;17.30;99.90;;;;;;5017752;28;20467;-43
2023/07/11 02:19:17;;;;;;;9.00;6.38;;;17.40;99.90;;;;;;5026516;28;20479;-39
2023/07/11 02:21:43;;;;;;;6.75;6.05;;;17.40;99.90;;;;;;5021186;28;20033;-43
2023/07/11 02:24:12;;;;;;;8.25;6.03;;;17.50;99.90;;;;;;5018088;28;20083;-40
2023/07/11 02:26:38;;;;;;;6.60;5.93;;;17.60;99.90;;;;;;5019160;28;20522;-43
2023/07/11 02:29:04;;;;;;;9.90;6.82;;;17.60;99.90;;;;;;5021780;28;20030;-38
2023/07/11 02:31:31;;;;;;;9.00;6.25;;;17.60;99.90;;;;;;5001414;28;20160;-39
2023/07/11 02:33:57;;;;;;;9.77;6.85;;;17.50;99.90;;;;;;5023817;28;20029;-41
2023/07/11 02:36:23;;;;;;;8.63;6.50;;;17.40;99.90;;;;;;5018809;28;20495;-43
2023/07/11 02:38:49;;;;;;;8.27;6.82;;;17.20;99.90;;;;;;5020848;28;20159;-42
2023/07/11 02:41:15;;;;;;;8.07;6.43;;;17.30;99.90;;;;;;5021339;28;20041;-43
2023/07/11 02:43:40;;;;;;;12.43;7.20;;;17.20;99.90;;;;;;5018021;28;20037;-43
2023/07/11 02:46:06;;;;;;;8.25;7.05;;;16.90;99.90;;;;;;5023858;28;20604;-40
2023/07/11 02:48:31;;;;;;;7.30;6.55;;;16.60;99.90;;;;;;5018741;28;20041;-41
2023/07/11 02:50:57;;;;;;;7.45;6.40;;;16.50;99.90;;;;;;5016469;28;20049;-43
2023/07/11 02:53:23;;;;;;;8.20;6.70;;;16.60;99.90;;;;;;5021628;28;20033;-43
2023/07/11 02:55:53;;;;;;;8.15;6.70;;;16.60;99.90;;;;;;5019018;28;20081;-40
2023/07/11 02:58:18;;;;;;;7.32;6.00;;;16.70;99.90;;;;;;5018190;28;20033;-39
2023/07/11 03:00:48;;;;;;;8.68;6.20;;;16.80;99.90;;;;;;5005121;28;20691;-44
2023/07/11 03:03:14;;;;;;;10.65;6.65;;;16.70;99.90;;;;;;5018968;28;20028;-43
2023/07/11 03:05:48;;;;;;;7.32;6.03;;;16.60;99.90;;;;;;5024009;28;20108;-43
2023/07/11 03:08:15;;;;;;;9.30;6.55;;;16.60;99.90;;;;;;5023925;28;20163;-42
2023/07/11 03:10:40;;;;;;;9.65;6.63;;;16.70;99.90;;;;;;5020399;28;20021;-43
2023/07/11 03:13:07;;;;;;;10.15;7.15;;;16.80;99.90;;;;;;5022463;28;20044;-39
2023/07/11 03:15:36;;;;;;;7.88;7.07;;;16.90;99.90;;;;;;5020983;28;20069;-43
2023/07/11 03:18:02;;;;;;;8.35;6.82;;;16.90;99.90;;;;;;5021543;28;20127;-43
2023/07/11 03:20:28;;;;;;;7.63;6.50;;;16.90;99.90;;;;;;5023652;28;20057;-42
2023/07/11 03:22:53;;;;;;;7.90;6.07;;;17.00;99.90;;;;;;5021366;28;20099;-41
2023/07/11 03:25:19;;;;;;;7.70;6.30;;;17.00;99.90;;;;;;5016981;28;20094;-39
2023/07/11 03:27:45;;;;;;;8.45;6.57;;;17.10;99.90;;;;;;5017789;28;20728;-41
2023/07/11 03:30:10;;;;;;;10.30;6.25;;;17.10;99.90;;;;;;5022370;28;20922;-41
2023/07/11 03:32:36;;;;;;;7.50;6.80;;;17.00;99.90;;;;;;5021261;28;20061;-40
2023/07/11 03:35:02;;;;;;;8.32;6.72;;;17.00;99.90;;;;;;5018067;28;20021;-39
2023/07/11 03:37:28;;;;;;;9.60;6.30;;;17.00;99.90;;;;;;5021527;28;20200;-42
2023/07/11 03:39:54;;;;;;;10.68;6.50;;;17.10;99.90;;;;;;5023285;28;20056;-37
2023/07/11 03:42:19;;;;;;;10.15;6.80;;;16.90;99.90;;;;;;5021941;28;20112;-37
2023/07/11 03:44:45;;;;;;;7.97;6.45;;;16.90;99.90;;;;;;5020183;28;20132;-42
2023/07/11 03:47:11;;;;;;;7.80;6.57;;;16.90;99.90;;;;;;5021721;28;20034;-40
2023/07/11 03:49:37;;;;;;;8.20;7.07;;;17.00;99.90;;;;;;5019264;28;20037;-41
2023/07/11 03:52:03;;;;;;;8.65;6.47;;;17.00;99.90;;;;;;5019503;28;20048;-42
2023/07/11 03:54:28;;;;;;;7.22;6.35;;;17.00;99.90;;;;;;5020434;28;20017;-42
2023/07/11 03:56:54;;;;;;;9.85;6.95;;;17.00;99.90;;;;;;5021978;28;20094;-41
2023/07/11 03:59:20;;;;;;;8.88;6.65;;;17.00;99.90;;;;;;5017498;28;20060;-41
2023/07/11 04:01:46;;;;;;;9.52;6.32;;;17.00;99.90;;;;;;5001194;28;20597;-41
2023/07/11 04:04:12;;;;;;;9.55;7.07;;;17.10;99.90;;;;;;5018110;28;20068;-39
2023/07/11 04:06:38;;;;;;;9.07;6.28;;;17.00;99.90;;;;;;5023050;28;20071;-41
2023/07/11 04:09:04;;;;;;;10.00;6.25;;;17.00;99.90;;;;;;5018370;28;20536;-41
2023/07/11 04:11:29;;;;;;;7.80;5.75;;;17.00;99.90;;;;;;5021490;28;20029;-41
2023/07/11 04:13:55;;;;;;;7.72;6.35;;;17.00;99.90;;;;;;5020619;28;20512;-42
2023/07/11 04:16:20;;;;;;;7.78;6.43;;;17.00;99.90;;;;;;5018983;28;20391;-39
2023/07/11 04:18:46;;;;;;;9.15;5.95;;;17.10;99.90;;;;;;4998286;28;20241;-42
2023/07/11 04:21:12;;;;;;;8.20;6.85;;;17.10;99.90;;;;;;5020663;28;20036;-40
2023/07/11 04:23:37;;;;;;;9.95;6.80;;;17.10;99.90;;;;;;5019062;28;20033;-39
2023/07/11 04:26:03;;;;;;;9.25;6.70;;;16.90;99.90;;;;;;5018741;28;20037;-41
2023/07/11 04:28:30;;;;;;;11.05;7.00;;;16.90;99.90;;;;;;5022505;28;20403;-41
2023/07/11 04:30:55;;;;;;;9.07;6.78;;;17.00;99.90;;;;;;5018996;28;20049;-41
2023/07/11 04:33:21;;;;;;;7.72;6.72;;;17.00;99.90;;;;;;5022591;28;20579;-31
2023/07/11 04:35:47;;;;;;;8.43;6.47;;;17.10;99.90;;;;;;5021314;28;20030;-31
2023/07/11 04:38:12;;;;;;;9.38;6.82;;;17.20;99.90;;;;;;5022378;28;20021;-33
2023/07/11 04:40:39;;;;;;;10.30;7.05;;;17.20;99.90;;;;;;5022929;28;20029;-34
2023/07/11 04:43:04;;;;;;;8.10;6.07;;;17.30;99.90;;;;;;5023828;28;20095;-31
2023/07/11 04:45:30;;;;;;;7.53;6.75;;;17.40;99.90;;;;;;5023244;28;20072;-33
2023/07/11 04:47:55;;;;;;;9.32;7.03;;;17.50;99.90;;;;;;5027086;28;20025;-31
2023/07/11 04:50:21;;;;;;;11.05;6.80;;;17.50;99.90;;;;;;5022867;28;20069;-31
2023/07/11 04:52:47;;;;;;;7.03;6.32;;;17.60;99.90;;;;;;5023847;28;20037;-31
2023/07/11 04:55:13;;;;;;;7.53;6.57;;;17.70;99.90;;;;;;5026393;28;20028;-32
2023/07/11 04:57:38;;;;;;;7.03;6.00;;;17.70;99.90;;;;;;5028100;28;20621;-31
2023/07/11 05:00:05;;;;;;;8.60;6.60;;;17.80;99.90;;;;;;5023002;28;20050;-31
2023/07/11 05:02:32;;;;;;;8.45;6.50;;;17.90;99.90;;;;;;5024272;28;20038;-32
2023/07/11 05:04:57;;;;;;;7.97;6.50;;;18.00;99.90;;;;;;5024002;28;20045;-32
2023/07/11 05:07:23;;;;;;;8.77;6.57;;;18.00;99.90;;;;;;5028289;28;20087;-35
2023/07/11 05:09:49;;;;;;;7.88;6.30;;;18.10;99.90;;;;;;5025105;28;20495;-32
2023/07/11 05:12:15;;;;;;;8.23;6.38;;;18.10;99.90;;;;;;5023876;28;20479;-35
2023/07/11 05:14:41;;;;;;;7.82;6.55;;;18.20;99.90;;;;;;5028563;28;20546;-31
2023/07/11 05:17:07;;;;;;;7.22;6.15;;;18.40;99.90;;;;;;5024694;28;20112;-31
2023/07/11 05:19:32;;;;;;;8.45;6.50;;;18.50;99.90;;;;;;5020382;28;20030;-30
2023/07/11 05:21:58;;;;;;;8.80;6.15;;;18.60;99.90;;;;;;5024686;28;20104;-32
2023/07/11 05:24:24;;;;;;;7.78;6.30;;;18.70;99.90;;;;;;5022982;28;20502;-32
2023/07/11 05:26:49;;;;;;;6.63;6.03;;;18.80;99.90;;;;;;5022975;28;20056;-31
2023/07/11 05:29:15;;;;;;;9.13;5.82;;;18.90;99.90;;;;;;5027758;28;20036;-31
2023/07/11 05:31:41;;;;;;;8.43;6.00;;;19.10;99.90;;;;;;5022064;28;20083;-31
2023/07/11 05:34:08;;;;;;;8.68;6.25;;;19.20;99.90;;;;;;5026856;28;20029;-31
2023/07/11 05:36:35;;;;;;;8.40;6.38;;;19.30;99.90;;;;;;5026146;28;20035;-30
2023/07/11 05:39:11;;;;;;;7.25;6.43;;;19.30;99.90;;;;;;5029416;28;20486;-31
2023/07/11 05:41:44;;;;;;;8.70;7.05;;;19.20;99.90;;;;;;5024348;28;20506;-35
2023/07/11 05:44:10;;;;;;;9.00;6.68;;;19.30;99.90;;;;;;5023549;28;20108;-30
2023/07/11 05:46:36;;;;;;;7.60;6.65;;;19.50;99.90;;;;;;5020507;28;20034;-31
2023/07/11 05:49:03;;;;;;;7.53;6.65;;;19.60;99.90;;;;;;5025262;28;20128;-31
2023/07/11 05:51:30;;;;;;;8.40;6.50;;;19.70;99.90;;;;;;5022460;28;20014;-31
2023/07/11 05:53:56;;;;;;;11.68;7.53;;;19.70;99.90;;;;;;5023246;28;20034;-31
2023/07/11 05:56:22;;;;;;;8.27;6.72;;;19.70;99.90;;;;;;5020799;28;20040;-31
2023/07/11 05:58:50;;;;;;;8.35;6.70;;;19.80;99.90;;;;;;5010052;28;20033;-31
2023/07/11 06:01:18;;;;;;;8.90;7.28;;;19.80;99.90;;;;;;5022290;28;20053;-34
2023/07/11 06:03:45;;;;;;;12.93;7.70;;;19.90;99.90;;;;;;5025546;28;20021;-32
2023/07/11 06:06:12;;;;;;;11.15;7.63;;;20.00;99.90;;;;;;5024831;28;20032;-34
2023/07/11 06:08:38;;;;;;;9.70;7.82;;;20.00;99.90;;;;;;5026217;28;20107;-32
2023/07/11 06:11:05;;;;;;;9.45;6.80;;;20.30;99.90;;;;;;5019599;28;20049;-31
2023/07/11 06:13:32;;;;;;;9.10;7.60;;;20.50;99.90;;;;;;5022981;28;20107;-31
2023/07/11 06:16:01;;;;;;;9.95;7.40;;;20.70;99.90;;;;;;5023371;28;20365;-32
2023/07/11 06:18:27;;;;;;;10.35;7.55;;;20.60;99.90;;;;;;5011728;28;20060;-32
2023/07/11 06:20:53;;;;;;;10.23;7.30;;;20.60;99.90;;;;;;5023415;28;20022;-34
2023/07/11 06:23:20;;;;;;;8.57;7.68;;;20.80;99.90;;;;;;5018932;28;20121;-34
2023/07/11 06:25:48;;;;;;;11.40;7.15;;;20.90;99.90;;;;;;5025447;28;20025;-32
2023/07/11 06:28:13;;;;;;;9.00;8.10;;;20.90;99.90;;;;;;5022303;28;20029;-30
2023/07/11 06:30:43;;;;;;;7.65;6.80;;;21.20;99.90;;;;;;5016600;28;20202;-37
2023/07/11 06:33:12;;;;;;;9.05;6.93;;;21.40;99.90;;;;;;5023750;28;20030;-31
2023/07/11 06:35:40;;;;;;;7.90;6.63;;;21.60;99.90;;;;;;5022490;28;20034;-35
2023/07/11 06:38:07;;;;;;;9.73;6.32;;;21.90;99.90;;;;;;5021143;28;20375;-31
2023/07/11 06:40:32;;;;;;;7.57;6.43;;;22.10;99.90;;;;;;5020781;28;20041;-31
2023/07/11 06:42:58;;;;;;;8.85;7.05;;;22.20;99.90;;;;;;5024617;28;20029;-37
2023/07/11 06:45:24;;;;;;;9.50;7.50;;;22.30;99.90;;;;;;5022479;28;20087;-31
2023/07/11 06:47:50;;;;;;;8.38;6.95;;;22.50;99.90;;;;;;5024258;28;20075;-33
2023/07/11 06:50:16;;;;;;;8.70;6.68;;;22.80;99.90;;;;;;5021885;28;20029;-30
2023/07/11 06:52:42;;;;;;;8.82;6.55;;;23.00;99.90;;;;;;5021162;28;20399;-34
2023/07/11 06:55:07;;;;;;;8.63;7.07;;;23.30;99.90;;;;;;5021685;28;20040;-34
2023/07/11 06:57:33;;;;;;;9.95;7.32;;;23.40;99.90;;;;;;5022940;28;20072;-35
2023/07/11 06:59:59;;;;;;;7.80;6.95;;;23.20;99.90;;;;;;5019342;28;20160;-35
2023/07/11 07:02:24;;;;;;;8.13;5.75;;;23.10;99.90;;;;;;5003735;28;20548;-34
2023/07/11 07:04:50;;;;;;;9.70;6.80;;;23.40;99.90;;;;;;5019669;28;20042;-34
2023/07/11 07:07:19;;;;;;;9.50;6.75;;;23.70;99.90;;;;;;5021890;28;20106;-33
2023/07/11 07:09:45;;;;;;;9.20;6.03;;;23.70;99.90;;;;;;5021581;28;20035;-33
2023/07/11 07:12:10;;;;;;;8.70;6.55;;;23.90;99.90;;;;;;5019807;28;20112;-33
2023/07/11 07:14:36;;;;;;;9.05;6.93;;;23.90;99.90;;;;;;5021615;28;20392;-35
2023/07/11 07:17:01;;;;;;;7.00;6.20;;;23.90;99.90;;;;;;5015590;28;20076;-34
2023/07/11 07:19:27;;;;;;;8.00;5.93;;;23.90;99.90;;;;;;5021679;28;20516;-33
2023/07/11 07:21:53;;;;;;;9.07;6.65;;;24.10;99.90;;;;;;5004371;28;20029;-35
2023/07/11 07:24:18;;;;;;;6.43;5.82;;;24.30;99.90;;;;;;5016820;28;20061;-33
2023/07/11 07:26:44;;;;;;;6.57;5.55;;;24.40;99.90;;;;;;5017438;28;20029;-38
2023/07/11 07:29:09;;;;;;;6.60;5.82;;;24.50;99.90;;;;;;5020974;28;20032;-33
2023/07/11 07:31:35;;;;;;;9.43;5.78;;;24.70;99.90;;;;;;5020466;28;20025;-34
2023/07/11 07:34:01;;;;;;;6.70;5.72;;;25.00;99.90;;;;;;5020067;28;20505;-36
2023/07/11 07:36:26;;;;;;;6.95;5.97;;;25.30;99.90;;;;;;5018113;28;20518;-33
2023/07/11 07:38:52;;;;;;;5.60;5.05;;;25.50;99.90;;;;;;5016119;28;20040;-33
2023/07/11 07:41:20;;;;;;;10.02;5.03;;;25.60;99.90;;;;;;5019993;28;20567;-33
2023/07/11 07:43:45;;;;;;;5.65;5.07;;;25.90;99.90;;;;;;5024327;28;20070;-36
2023/07/11 07:46:16;;;;;;;5.57;5.05;;;26.40;99.90;;;;;;5021832;28;20045;-33
2023/07/11 07:48:43;;;;;;;7.95;3.80;;;26.60;99.90;;;;;;5019459;28;20099;-33
2023/07/11 07:51:13;;;;;;;5.40;4.18;;;26.60;99.90;;;;;;5021242;28;20072;-36
2023/07/11 07:53:38;;;;;;;4.35;3.80;;;26.60;99.90;;;;;;5019610;28;20109;-34
2023/07/11 07:56:08;;;;;;;5.03;3.80;;;26.70;99.90;;;;;;5019863;28;20554;-33
2023/07/11 07:58:34;;;;;;;6.78;3.67;;;26.90;99.90;;;;;;5018118;28;20045;-34
2023/07/11 08:01:00;;;;;;;4.82;4.00;;;26.90;99.90;;;;;;5022082;28;20446;-33
2023/07/11 08:03:26;;;;;;;8.80;4.97;;;27.20;99.90;;;;;;5022551;28;20018;-32
2023/07/11 08:05:55;;;;;;;5.95;3.63;;;27.40;99.90;;;;;;5020678;28;20039;-31
2023/07/11 08:08:20;;;;;;;5.13;3.95;;;27.40;99.90;;;;;;5022876;28;20083;-32
2023/07/11 08:10:46;;;;;;;6.30;4.18;;;27.40;99.90;;;;;;5027274;28;20466;-32
2023/07/11 08:13:12;;;;;;;5.03;3.90;;;27.60;99.90;;;;;;5026049;28;20052;-31
2023/07/11 08:15:38;;;;;;;6.13;4.32;;;27.40;99.90;;;;;;5023412;28;20030;-35
2023/07/11 08:18:03;;;;;;;5.65;3.95;;;27.50;99.90;;;;;;5022459;28;20025;-31
2023/07/11 08:20:29;;;;;;;6.65;4.30;;;27.80;99.90;;;;;;5022059;28;20451;-30
2023/07/11 08:22:54;;;;;;;4.55;3.92;;;27.90;99.90;;;;;;5024967;28;20033;-31
2023/07/11 08:25:20;;;;;;;5.22;3.92;;;28.00;99.90;;;;;;5024329;28;20475;-33
2023/07/11 08:27:46;;;;;;;5.55;4.03;;;28.00;99.90;;;;;;5024190;28;20475;-31
2023/07/11 08:30:11;;;;;;;7.10;4.40;;;28.20;99.90;;;;;;5022254;28;20029;-31
2023/07/11 08:32:38;;;;;;;5.45;3.95;;;28.50;99.90;;;;;;5022592;28;20038;-31
2023/07/11 08:35:05;;;;;;;4.97;3.75;;;28.50;99.90;;;;;;5021973;28;20022;-31
2023/07/11 08:37:31;;;;;;;5.55;4.18;;;28.70;99.90;;;;;;5024046;28;20026;-31
2023/07/11 08:39:57;;;;;;;4.70;3.90;;;28.50;99.90;;;;;;5024024;28;20039;-31
2023/07/11 08:42:32;;;;;;;6.13;4.03;;;28.50;99.90;;;;;;5025630;28;20411;-31
2023/07/11 08:45:19;;;;;;;4.63;3.58;;;28.60;99.90;;;;;;5018531;28;20060;-32
2023/07/11 08:47:50;;;;;;;;;;;29.00;99.90;;;;;;5018758;28;20480;-31
2023/07/11 08:50:21;;;;;;;5.22;3.80;;;29.40;99.90;;;;;;5024553;28;19967;-32
2023/07/11 08:52:59;;;;;;;4.35;3.90;;;29.60;99.90;;;;;;5022422;28;20045;-37
2023/07/11 08:55:29;;;;;;;4.50;3.80;;;29.90;99.90;;;;;;5021119;28;20475;-31
2023/07/11 08:58:33;;;;;;;4.60;3.85;;;29.40;99.90;;;;;;5021457;28;20037;-31
2023/07/11 09:01:02;;;;;;;4.80;4.00;;;29.30;99.90;;;;;;4908810;29;20052;-31
2023/07/11 09:03:39;;;;;;;4.60;4.10;;;29.60;99.90;;;;;;5005123;28;20482;-31
2023/07/11 09:06:12;;;;;;;4.63;3.83;;;29.80;99.90;;;;;;5020605;28;20044;-33
2023/07/11 09:08:43;;;;;;;4.88;4.30;;;29.80;99.90;;;;;;5023532;28;20049;-32
2023/07/11 09:11:35;;;;;;;5.55;4.30;;;29.90;99.90;;;;;;5008935;28;20182;-32
2023/07/11 09:14:26;;;;;;;5.85;3.90;;;30.20;99.90;;;;;;4998536;28;20138;-35
2023/07/11 09:17:18;;;;;;;5.82;4.22;;;30.00;99.90;;;;;;5022002;28;20038;-33
2023/07/11 09:20:05;;;;;;;5.78;4.10;;;30.00;99.90;;;;;;5010215;28;20042;-33
2023/07/11 09:22:41;;;;;;;6.65;4.40;;;30.50;99.90;;;;;;5021618;28;20274;-32
2023/07/11 09:25:16;;;;;;;5.60;4.30;;;30.40;99.90;;;;;;5016614;28;20068;-33
2023/07/11 09:27:48;;;;;;;4.60;3.78;;;30.60;99.90;;;;;;5020568;28;20032;-34
2023/07/11 09:30:34;;;;;;;4.65;3.95;;;30.90;99.90;;;;;;5019014;28;20593;-32
2023/07/11 09:33:14;;;;;;;5.97;5.05;;;31.10;99.90;;;;;;5022813;28;20323;-33
2023/07/11 09:35:43;;;;;;;6.57;4.35;;;31.20;99.90;;;;;;5024771;28;20509;-34
2023/07/11 09:38:37;;;;;;;6.32;4.32;;;30.90;99.90;;;;;;5017039;28;20030;-33
2023/07/11 09:41:12;;;;;;;7.13;4.88;;;31.20;99.90;;;;;;5020921;28;20041;-33
2023/07/11 09:43:38;;;;;;;4.72;4.22;;;31.80;99.90;;;;;;5022685;28;20033;-36
2023/07/11 09:46:14;;;;;;;4.80;4.38;;;32.10;99.90;;;;;;5024019;28;20029;-32
2023/07/11 09:48:42;;;;;;;4.47;4.07;;;32.30;99.90;;;;;;5022734;28;20030;-33
2023/07/11 09:51:28;;;;;;;5.85;5.00;;;32.40;99.90;;;;;;5002601;28;20057;-33
2023/07/11 09:53:55;;;;;;;6.30;4.90;;;32.60;99.90;;;;;;5023884;28;20479;-34
2023/07/11 09:56:23;;;;;;;7.88;4.68;;;32.90;99.90;;;;;;5018389;28;20083;-33
2023/07/11 09:58:57;;;;;;;6.13;4.35;;;32.40;99.90;;;;;;5021588;28;20393;-32
2023/07/11 10:01:36;;;;;;;4.88;4.30;;;31.50;99.90;;;;;;5022540;28;20183;-32
2023/07/11 10:04:06;;;;;;;7.43;5.07;;;31.10;99.90;;;;;;5024404;28;20041;-34
2023/07/11 10:06:33;;;;;;;6.45;5.30;;;31.50;99.90;;;;;;5018738;28;20513;-34
2023/07/11 10:09:10;;;;;;;5.70;4.70;;;31.40;99.90;;;;;;5021516;28;20030;-33
2023/07/11 10:11:36;;;;;;;5.95;5.05;;;31.40;99.90;;;;;;5023830;28;20021;-34
2023/07/11 10:14:02;;;;;;;6.50;4.53;;;32.10;99.90;;;;;;5024389;28;20044;-32
2023/07/11 10:16:33;;;;;;;4.88;4.47;;;32.70;99.90;;;;;;5021141;28;20030;-33
2023/07/11 10:18:59;;;;;;;7.63;4.93;;;33.20;99.90;;;;;;5000487;28;20041;-32
2023/07/11 10:21:27;;;;;;;7.13;5.50;;;33.20;99.90;;;;;;5017246;28;20026;-32
2023/07/11 10:23:53;;;;;;;9.70;5.45;;;32.80;99.90;;;;;;5023267;28;20040;-30
2023/07/11 10:26:27;;;;;;;6.47;4.93;;;32.10;99.90;;;;;;5023228;28;20041;-35
2023/07/11 10:29:10;;;;;;;6.82;4.60;;;31.80;99.90;;;;;;5019492;28;20488;-31
2023/07/11 10:31:46;;;;;;;6.40;5.00;;;32.30;99.90;;;;;;5023413;28;20040;-32
2023/07/11 10:34:21;;;;;;;5.18;4.68;;;32.70;99.90;;;;;;5024724;28;20502;-34
2023/07/11 10:36:51;;;;;;;6.63;4.45;;;33.20;99.90;;;;;;5016885;28;20492;-31
2023/07/11 10:39:40;;;;;;;7.75;5.05;;;33.60;99.90;;;;;;5025535;28;20141;-31
2023/07/11 10:42:29;;;;;;;5.15;4.40;;;34.10;99.90;;;;;;5024463;28;20044;-31
2023/07/11 10:45:23;;;;;;;5.30;4.60;;;33.80;99.90;;;;;;5020397;28;20458;-31
2023/07/11 10:48:21;;;;;;;5.07;4.50;;;33.80;99.90;;;;;;5012503;28;20085;-31
2023/07/11 10:51:02;;;;;;;6.30;5.20;;;33.50;99.90;;;;;;5016238;28;20121;-32
2023/07/11 10:53:33;;;;;;;7.07;5.13;;;33.50;99.90;;;;;;5025464;28;20021;-31
2023/07/11 10:56:11;;;;;;;6.38;4.93;;;33.60;99.90;;;;;;5023046;28;20093;-31
2023/07/11 10:58:37;;;;;;;7.18;5.00;;;33.20;99.90;;;;;;5023268;28;20399;-31
2023/07/11 11:01:40;;;;;;;5.32;4.78;;;33.20;99.90;;;;;;5018510;28;20042;-31
2023/07/11 11:04:24;;;;;;;6.38;5.20;;;33.50;99.90;;;;;;5019367;28;20475;-31
2023/07/11 11:07:03;;;;;;;57.72;9.30;;;34.00;99.90;;;;;;5023746;28;20044;-32
2023/07/11 11:09:38;;;;;;;6.25;5.10;;;33.90;99.90;;;;;;5026406;28;20022;-31
2023/07/11 11:12:18;;;;;;;6.30;5.03;;;33.50;99.90;;;;;;5019312;28;20112;-31
2023/07/11 11:15:03;;;;;;;9.30;5.15;;;34.00;99.90;;;;;;5022423;28;20030;-31
2023/07/11 11:17:57;;;;;;;7.63;4.47;;;34.40;99.90;;;;;;5018389;28;20053;-31
2023/07/11 11:20:54;;;;;;;6.63;4.63;;;34.40;99.90;;;;;;5022423;28;20084;-31
2023/07/11 11:23:44;;;;;;;6.97;4.85;;;34.20;99.90;;;;;;5025869;28;20471;-36
2023/07/11 11:26:35;;;;;;;5.28;4.78;;;34.40;99.90;;;;;;5019129;28;20037;-31
2023/07/11 11:29:17;;;;;;;5.30;4.78;;;34.50;99.90;;;;;;5001879;28;20039;-33
2023/07/11 11:31:58;;;;;;;5.68;4.43;;;34.30;99.90;;;;;;4999070;28;20029;-30
2023/07/11 11:34:26;;;;;;;5.68;4.32;;;34.50;99.90;;;;;;5001400;28;20049;-41
2023/07/11 11:37:09;;;;;;;6.07;4.90;;;35.20;99.90;;;;;;5003551;28;20499;-40
2023/07/11 11:39:48;;;;;;;6.22;4.90;;;34.90;99.90;;;;;;4996708;28;20030;-35
2023/07/11 11:42:27;;;;;;;6.20;4.78;;;34.40;99.90;;;;;;5003892;28;20030;-42
2023/07/11 11:45:03;;;;;;;5.38;4.88;;;34.50;99.90;;;;;;4996532;28;20029;-41
2023/07/11 11:47:31;;;;;;;5.20;4.70;;;34.20;99.90;;;;;;4998303;28;20030;-42
2023/07/11 11:49:57;;;;;;;5.20;4.68;;;34.20;99.90;;;;;;4998052;28;20045;-41
2023/07/11 11:52:24;;;;;;;6.70;4.80;;;33.90;99.90;;;;;;4999852;28;20027;-41
2023/07/11 11:54:50;;;;;;;6.22;5.22;;;34.50;99.90;;;;;;5000140;28;20054;-40
2023/07/11 11:57:21;;;;;;;7.97;5.17;;;34.50;99.90;;;;;;5001010;28;20025;-42
2023/07/11 11:59:47;;;;;;;9.32;5.15;;;33.50;99.90;;;;;;4994799;28;20054;-35
2023/07/11 12:02:17;;;;;;;7.88;5.10;;;34.00;99.90;;;;;;4999965;28;20041;-41
2023/07/11 12:05:00;;;;;;;7.05;4.78;;;34.40;99.90;;;;;;5002384;28;20029;-42
2023/07/11 12:07:53;;;;;;;6.07;4.75;;;34.30;99.90;;;;;;4997561;28;20025;-42
2023/07/11 12:10:23;;;;;;;8.40;4.82;;;33.80;99.90;;;;;;4988504;28;20041;-41
2023/07/11 12:13:16;;;;;;;6.43;4.95;;;34.20;99.90;;;;;;5000985;28;20023;-42
2023/07/11 12:15:47;;;;;;;5.50;4.75;;;34.50;99.90;;;;;;5004784;28;20049;-40
2023/07/11 12:18:33;;;;;;;4.97;4.40;;;34.70;99.90;;;;;;5012586;28;20399;-40
2023/07/11 12:21:13;;;;;;;5.45;4.75;;;34.80;99.90;;;;;;4999730;28;20037;-42
2023/07/11 12:24:10;;;;;;;6.60;4.95;;;35.10;99.90;;;;;;4998176;28;20034;-39
2023/07/11 12:26:35;;;;;;;;;;;35.20;99.90;;;;;;4998810;28;20128;-42
2023/07/11 12:29:37;;;;;;;6.03;4.93;;;35.20;99.90;;;;;;5003616;28;19917;-41
2023/07/11 12:32:31;;;;;;;7.25;4.82;;;35.20;99.90;;;;;;4999131;28;20520;-42
2023/07/11 12:35:08;;;;;;;7.10;5.00;;;35.60;99.90;;;;;;4998894;28;20100;-42
2023/07/11 12:38:01;;;;;;;5.45;4.70;;;35.20;99.90;;;;;;4994919;28;20071;-42
2023/07/11 12:40:34;;;;;;;5.80;4.22;;;34.60;99.90;;;;;;4997433;28;20072;-41
2023/07/11 12:43:01;;;;;;;6.72;4.57;;;34.80;99.90;;;;;;4999122;28;20042;-40
2023/07/11 12:45:35;;;;;;;7.95;4.53;;;35.10;99.90;;;;;;4996272;28;20087;-41
2023/07/11 12:48:11;;;;;;;7.50;4.85;;;35.00;99.90;;;;;;4999766;28;20499;-36
2023/07/11 12:50:49;;;;;;;7.07;4.60;;;34.50;99.90;;;;;;4999639;28;20060;-41
2023/07/11 12:53:16;;;;;;;6.47;5.00;;;34.80;99.90;;;;;;4996143;28;20525;-42
2023/07/11 12:55:43;;;;;;;8.47;4.87;;;34.90;99.90;;;;;;5000415;28;20127;-39
2023/07/11 12:58:21;;;;;;;6.05;5.07;;;34.90;99.90;;;;;;5001646;28;20030;-40
2023/07/11 13:00:48;;;;;;;6.07;4.63;;;35.20;99.90;;;;;;4997736;28;20115;-42
2023/07/11 13:03:27;;;;;;;6.93;4.75;;;35.20;99.90;;;;;;5001431;28;20403;-42